Time;durP1;ratioP1;P1;durP2;ratioP2;P2;SDS_P1;SDS_P2;PMS_P1;PMS_P2;Temp;Humidity;BMP_temperature;BMP_pressure;BME280_temperature;BME280_humidity;BME280_pressure;Samples;Min_cycle;Max_cycle;Signal;HPM_P1;HPM_P2
2022/07/10 00:01:32;;;;;;;3.60;0.85;;;22.60;57.30;;;;;;4491826;32;20080;-67
2022/07/10 00:04:02;;;;;;;2.10;0.60;;;22.60;57.30;;;;;;4491504;32;20069;-68
2022/07/10 00:06:28;;;;;;;1.27;0.50;;;22.60;57.30;;;;;;4491560;32;20211;-67
2022/07/10 00:08:55;;;;;;;2.25;0.60;;;22.60;57.30;;;;;;4491845;32;20077;-67
2022/07/10 00:11:21;;;;;;;3.47;0.80;;;22.60;57.40;;;;;;4491384;32;20512;-67
2022/07/10 00:13:47;;;;;;;1.40;0.65;;;22.50;57.30;;;;;;4494311;31;20077;-67
2022/07/10 00:16:12;;;;;;;1.15;0.40;;;22.50;57.30;;;;;;4494616;31;20431;-67
2022/07/10 00:18:38;;;;;;;1.88;0.50;;;22.50;57.30;;;;;;4494819;31;20115;-67
2022/07/10 00:21:05;;;;;;;1.67;0.75;;;22.60;57.40;;;;;;4494727;31;20084;-67
2022/07/10 00:23:31;;;;;;;1.92;0.60;;;22.50;57.30;;;;;;4494393;31;20092;-67
2022/07/10 00:25:56;;;;;;;2.15;0.60;;;22.50;57.40;;;;;;4494704;31;20073;-68
2022/07/10 00:28:23;;;;;;;2.55;0.50;;;22.50;57.40;;;;;;4494988;31;20061;-68
2022/07/10 00:30:49;;;;;;;3.38;0.85;;;22.50;57.40;;;;;;4494766;31;20164;-67
2022/07/10 00:33:14;;;;;;;3.00;0.70;;;22.50;57.50;;;;;;4494955;31;20507;-67
2022/07/10 00:35:40;;;;;;;2.22;0.50;;;22.50;57.50;;;;;;4494603;31;20069;-67
2022/07/10 00:38:06;;;;;;;1.67;0.50;;;22.50;57.50;;;;;;4494335;31;20069;-68
2022/07/10 00:40:32;;;;;;;2.90;0.57;;;22.50;57.60;;;;;;4494460;31;20076;-68
2022/07/10 00:42:58;;;;;;;2.20;0.57;;;22.50;57.60;;;;;;4493176;31;20151;-68
2022/07/10 00:45:25;;;;;;;1.00;0.50;;;22.50;57.60;;;;;;4494409;31;20103;-68
2022/07/10 00:47:51;;;;;;;2.58;0.60;;;22.50;57.60;;;;;;4494645;31;20486;-67
2022/07/10 00:50:17;;;;;;;1.58;0.55;;;22.50;57.70;;;;;;4494632;31;20391;-68
2022/07/10 00:52:42;;;;;;;2.55;0.60;;;22.50;57.70;;;;;;4494593;31;20076;-67
2022/07/10 00:55:09;;;;;;;2.95;0.70;;;22.50;57.70;;;;;;4494411;31;20065;-67
2022/07/10 00:57:37;;;;;;;2.08;0.50;;;22.50;57.80;;;;;;4494273;31;20128;-67
2022/07/10 01:00:04;;;;;;;1.70;0.45;;;22.50;57.80;;;;;;4494028;31;20206;-67
2022/07/10 01:02:30;;;;;;;2.63;0.68;;;22.50;57.80;;;;;;4493233;31;20426;-67
2022/07/10 01:04:59;;;;;;;2.58;0.60;;;22.50;57.80;;;;;;4493133;31;20479;-67
2022/07/10 01:07:25;;;;;;;1.08;0.60;;;22.50;57.80;;;;;;4494160;31;20085;-68
2022/07/10 01:09:51;;;;;;;1.95;0.45;;;22.50;57.80;;;;;;4493064;31;20148;-72
2022/07/10 01:12:17;;;;;;;1.98;0.52;;;22.50;57.90;;;;;;4493878;31;20073;-67
2022/07/10 01:14:43;;;;;;;3.33;0.77;;;22.50;57.90;;;;;;4492994;31;20469;-67
2022/07/10 01:17:10;;;;;;;2.92;0.90;;;22.50;57.90;;;;;;4493729;31;20135;-67
2022/07/10 01:19:36;;;;;;;10.05;1.98;;;22.50;57.90;;;;;;4493951;31;20222;-67
2022/07/10 01:22:03;;;;;;;4.53;1.48;;;22.50;57.90;;;;;;4493964;31;20484;-67
2022/07/10 01:24:28;;;;;;;6.43;1.10;;;22.50;57.90;;;;;;4493264;31;20540;-67
2022/07/10 01:26:54;;;;;;;6.80;1.00;;;22.50;57.90;;;;;;4494077;31;20065;-67
2022/07/10 01:29:22;;;;;;;4.97;1.02;;;22.50;57.90;;;;;;4493878;31;20092;-69
2022/07/10 01:31:48;;;;;;;6.47;1.33;;;22.50;58.00;;;;;;4493843;31;20530;-67
2022/07/10 01:34:16;;;;;;;4.05;1.10;;;22.50;58.00;;;;;;4493523;31;20417;-68
2022/07/10 01:36:42;;;;;;;5.00;1.25;;;22.50;58.00;;;;;;4494022;31;20092;-67
2022/07/10 01:39:08;;;;;;;7.95;1.70;;;22.50;58.90;;;;;;4493789;31;20058;-67
2022/07/10 01:41:34;;;;;;;3.53;1.23;;;22.50;58.00;;;;;;4493844;31;20166;-67
2022/07/10 01:44:00;;;;;;;5.50;1.38;;;22.50;58.00;;;;;;4493570;31;20068;-67
2022/07/10 01:46:27;;;;;;;7.32;1.42;;;22.50;58.00;;;;;;4493341;31;20108;-67
2022/07/10 01:48:53;;;;;;;6.05;1.48;;;22.50;58.10;;;;;;4493789;31;20503;-67
2022/07/10 01:51:19;;;;;;;10.15;1.50;;;22.50;58.10;;;;;;4493493;31;20443;-67
2022/07/10 01:53:45;;;;;;;5.50;1.52;;;22.50;58.10;;;;;;4493331;31;20073;-68
2022/07/10 01:56:13;;;;;;;7.25;1.60;;;22.40;58.00;;;;;;4493442;31;20100;-67
2022/07/10 01:58:39;;;;;;;4.30;1.00;;;22.40;58.00;;;;;;4493645;31;20119;-67
2022/07/10 02:01:05;;;;;;;7.45;1.23;;;22.40;58.00;;;;;;4493402;31;20189;-67
2022/07/10 02:06:16;;;;;;;6.85;1.55;;;22.40;58.10;;;;;;4493195;31;20176;-67
2022/07/10 02:08:42;;;;;;;7.00;1.77;;;22.40;58.10;;;;;;4493514;31;20236;-67
2022/07/10 02:11:08;;;;;;;7.80;1.10;;;22.40;59.00;;;;;;4491817;31;20088;-67
2022/07/10 02:13:34;;;;;;;6.32;1.10;;;22.40;58.10;;;;;;4493250;31;20073;-67
2022/07/10 02:16:00;;;;;;;5.95;1.45;;;22.40;58.10;;;;;;4492857;31;20085;-67
2022/07/10 02:18:26;;;;;;;3.83;1.10;;;22.40;58.10;;;;;;4493086;31;20085;-68
2022/07/10 02:20:52;;;;;;;3.75;1.25;;;22.40;58.20;;;;;;4493094;31;20501;-68
2022/07/10 02:23:18;;;;;;;3.20;1.30;;;22.40;58.10;;;;;;4492778;31;20507;-67
2022/07/10 02:25:44;;;;;;;3.55;1.23;;;22.40;58.10;;;;;;4492923;31;20089;-68
2022/07/10 02:28:10;;;;;;;5.90;1.42;;;22.40;58.10;;;;;;4493229;31;20084;-67
2022/07/10 02:30:36;;;;;;;4.03;1.02;;;22.40;58.20;;;;;;4493207;31;20062;-67
2022/07/10 02:33:02;;;;;;;4.18;1.27;;;22.30;58.10;;;;;;4491823;31;20292;-67
2022/07/10 02:35:28;;;;;;;4.50;0.80;;;22.40;58.20;;;;;;4492329;31;20081;-67
2022/07/10 02:37:54;;;;;;;4.50;1.20;;;22.40;58.20;;;;;;4492490;31;20096;-67
2022/07/10 02:40:20;;;;;;;5.90;1.15;;;22.30;58.10;;;;;;4492737;31;20081;-67
2022/07/10 02:42:45;;;;;;;6.85;1.17;;;22.40;58.20;;;;;;4478618;31;20061;-67
2022/07/10 02:45:11;;;;;;;4.97;1.20;;;22.40;58.30;;;;;;4491294;31;20095;-67
2022/07/10 02:47:38;;;;;;;3.33;1.13;;;22.30;58.20;;;;;;4492440;31;20099;-68
2022/07/10 02:50:04;;;;;;;3.28;1.02;;;22.30;58.20;;;;;;4492619;31;20069;-67
2022/07/10 02:52:30;;;;;;;4.78;1.02;;;22.30;58.20;;;;;;4492330;31;20466;-67
2022/07/10 02:54:57;;;;;;;3.70;1.00;;;22.30;58.20;;;;;;4492531;31;20081;-67
2022/07/10 02:57:23;;;;;;;4.55;1.38;;;22.30;58.30;;;;;;4491441;31;20095;-67
2022/07/10 02:59:49;;;;;;;4.45;1.10;;;22.30;58.30;;;;;;4492532;31;20171;-67
2022/07/10 03:02:15;;;;;;;3.55;0.90;;;22.30;58.30;;;;;;4492455;31;20207;-67
2022/07/10 03:04:41;;;;;;;3.00;1.17;;;22.30;58.30;;;;;;4492347;31;20073;-67
2022/07/10 03:07:08;;;;;;;3.42;1.00;;;22.30;58.30;;;;;;4492123;31;20730;-67
2022/07/10 03:09:34;;;;;;;1.88;0.80;;;22.30;58.30;;;;;;4492369;31;20065;-67
2022/07/10 03:12:00;;;;;;;4.03;1.00;;;22.30;58.30;;;;;;4492234;31;20119;-67
2022/07/10 03:14:26;;;;;;;4.18;0.70;;;22.30;58.30;;;;;;4492297;31;20069;-67
2022/07/10 03:16:52;;;;;;;2.58;0.95;;;22.30;58.30;;;;;;4492267;31;20162;-67
2022/07/10 03:19:18;;;;;;;3.75;1.05;;;22.30;58.50;;;;;;4492478;31;20084;-67
2022/07/10 03:21:44;;;;;;;3.83;0.82;;;22.30;58.30;;;;;;4492200;31;20069;-68
2022/07/10 03:24:10;;;;;;;3.65;0.88;;;22.30;58.40;;;;;;4492131;31;20113;-67
2022/07/10 03:26:36;;;;;;;3.10;1.10;;;22.30;58.40;;;;;;4491106;31;20217;-68
2022/07/10 03:29:01;;;;;;;2.63;1.05;;;22.20;58.30;;;;;;4492468;31;20061;-67
2022/07/10 03:31:27;;;;;;;4.18;1.02;;;22.30;58.40;;;;;;4492369;31;20265;-67
2022/07/10 03:33:53;;;;;;;2.47;0.90;;;22.20;58.40;;;;;;4491039;31;20278;-67
2022/07/10 03:36:19;;;;;;;4.35;1.15;;;22.30;58.40;;;;;;4492319;31;20097;-67
2022/07/10 03:38:46;;;;;;;3.28;0.80;;;22.20;58.40;;;;;;4492238;31;20091;-67
2022/07/10 03:41:13;;;;;;;3.25;0.95;;;22.20;58.40;;;;;;4490734;31;20131;-67
2022/07/10 03:43:39;;;;;;;3.60;0.98;;;22.20;58.40;;;;;;4491992;31;20091;-68
2022/07/10 03:46:05;;;;;;;2.42;0.73;;;22.20;58.40;;;;;;4491671;31;20168;-67
2022/07/10 03:48:32;;;;;;;3.28;1.00;;;22.20;58.40;;;;;;4491720;31;20072;-67
2022/07/10 03:50:58;;;;;;;3.13;0.98;;;22.20;58.40;;;;;;4492163;31;20189;-67
2022/07/10 03:53:24;;;;;;;2.40;0.90;;;22.20;58.40;;;;;;4491744;32;20092;-67
2022/07/10 03:55:50;;;;;;;3.70;0.90;;;22.20;58.40;;;;;;4490851;32;20113;-67
2022/07/10 03:58:16;;;;;;;4.30;0.80;;;22.20;58.40;;;;;;4491866;32;20626;-68
2022/07/10 04:00:43;;;;;;;2.65;0.80;;;22.20;58.50;;;;;;4491858;32;20080;-67
2022/07/10 04:03:09;;;;;;;3.80;0.80;;;22.20;58.50;;;;;;4491823;32;20116;-67
2022/07/10 04:05:36;;;;;;;3.47;0.93;;;22.20;58.50;;;;;;4490714;32;20429;-67
2022/07/10 04:08:03;;;;;;;2.53;0.60;;;22.20;58.50;;;;;;4491807;32;20116;-67
2022/07/10 04:10:30;;;;;;;1.60;0.70;;;22.20;58.50;;;;;;4491740;32;20081;-67
2022/07/10 04:12:57;;;;;;;2.80;0.77;;;22.20;58.60;;;;;;4491795;32;20519;-67
2022/07/10 04:15:23;;;;;;;1.65;0.80;;;22.20;58.60;;;;;;4491542;32;20085;-67
2022/07/10 04:17:49;;;;;;;2.30;0.70;;;22.20;58.50;;;;;;4492032;32;20091;-67
2022/07/10 04:20:16;;;;;;;2.95;0.73;;;22.20;58.60;;;;;;4491692;32;20135;-67
2022/07/10 04:22:43;;;;;;;1.80;0.60;;;22.20;58.60;;;;;;4491998;32;20092;-68
2022/07/10 04:25:10;;;;;;;3.92;0.73;;;22.20;58.60;;;;;;4491373;32;20215;-67
2022/07/10 04:27:36;;;;;;;2.45;0.80;;;22.20;58.60;;;;;;4491745;32;20077;-67
2022/07/10 04:30:03;;;;;;;2.03;0.80;;;22.20;58.60;;;;;;4491697;32;20175;-67
2022/07/10 04:32:29;;;;;;;2.38;0.63;;;22.20;58.60;;;;;;4491667;32;20206;-67
2022/07/10 04:34:55;;;;;;;3.03;0.85;;;22.10;58.60;;;;;;4491365;32;20515;-67
2022/07/10 04:37:21;;;;;;;2.22;0.80;;;22.20;58.60;;;;;;4491379;32;20088;-67
2022/07/10 04:39:47;;;;;;;3.90;1.02;;;22.10;58.60;;;;;;4491627;32;20529;-67
2022/07/10 04:42:13;;;;;;;1.88;0.70;;;22.20;58.70;;;;;;4491483;32;20077;-67
2022/07/10 04:44:39;;;;;;;2.30;0.77;;;22.20;58.70;;;;;;4491487;32;20066;-67
2022/07/10 04:47:05;;;;;;;4.25;0.90;;;22.10;58.60;;;;;;4491537;31;20233;-67
2022/07/10 04:49:33;;;;;;;3.38;0.90;;;22.10;58.60;;;;;;4491494;31;20083;-67
2022/07/10 04:51:59;;;;;;;1.70;0.50;;;22.10;58.70;;;;;;4491252;32;20100;-67
2022/07/10 04:54:25;;;;;;;2.30;0.80;;;22.10;58.70;;;;;;4491250;32;20077;-67
2022/07/10 04:56:51;;;;;;;2.42;0.95;;;22.10;58.70;;;;;;4490443;32;20128;-67
2022/07/10 04:59:17;;;;;;;2.70;0.68;;;22.10;58.60;;;;;;4491955;31;20069;-67
2022/07/10 05:01:43;;;;;;;3.45;0.52;;;22.10;58.60;;;;;;4493248;31;20372;-67
2022/07/10 05:04:09;;;;;;;2.25;0.65;;;22.10;58.60;;;;;;4493930;31;20166;-67
2022/07/10 05:06:35;;;;;;;3.60;0.80;;;22.10;58.70;;;;;;4494555;31;20093;-67
2022/07/10 05:09:01;;;;;;;3.35;0.63;;;22.10;58.70;;;;;;4494433;31;20210;-67
2022/07/10 05:11:27;;;;;;;2.15;0.68;;;22.10;58.70;;;;;;4494357;31;20061;-67
2022/07/10 05:13:53;;;;;;;3.17;0.73;;;22.10;58.70;;;;;;4493119;31;20073;-67
2022/07/10 05:16:19;;;;;;;2.40;0.50;;;22.10;58.70;;;;;;4493876;31;20525;-67
2022/07/10 05:18:45;;;;;;;3.35;1.08;;;22.10;58.80;;;;;;4493801;31;20538;-67
2022/07/10 05:21:11;;;;;;;1.48;0.60;;;22.10;58.80;;;;;;4493747;31;20077;-67
2022/07/10 05:23:39;;;;;;;1.85;0.63;;;22.10;58.70;;;;;;4494264;31;20087;-67
2022/07/10 05:26:05;;;;;;;2.13;0.63;;;22.10;58.80;;;;;;4494133;31;20490;-67
2022/07/10 05:28:32;;;;;;;2.65;0.70;;;22.10;58.80;;;;;;4494230;31;20089;-68
2022/07/10 05:30:57;;;;;;;1.92;0.50;;;22.10;58.80;;;;;;4493896;31;20519;-67
2022/07/10 05:33:23;;;;;;;2.42;0.70;;;22.10;58.80;;;;;;4493855;31;20087;-67
2022/07/10 05:35:49;;;;;;;3.30;0.80;;;22.10;58.90;;;;;;4493810;31;20129;-67
2022/07/10 05:38:17;;;;;;;1.88;0.63;;;22.10;58.80;;;;;;4492482;31;20069;-67
2022/07/10 05:40:43;;;;;;;1.98;0.65;;;22.10;58.90;;;;;;4493489;31;20257;-67
2022/07/10 05:43:10;;;;;;;2.28;0.93;;;22.10;58.90;;;;;;4493702;31;20066;-67
2022/07/10 05:45:35;;;;;;;3.38;0.93;;;22.10;58.90;;;;;;4493702;31;20073;-67
2022/07/10 05:48:01;;;;;;;2.20;0.70;;;22.10;58.80;;;;;;4493615;31;20076;-67
2022/07/10 05:50:28;;;;;;;1.90;0.70;;;22.10;58.90;;;;;;4493877;31;20111;-67
2022/07/10 05:52:54;;;;;;;2.25;0.63;;;22.10;58.80;;;;;;4493373;31;20077;-67
2022/07/10 05:55:19;;;;;;;1.98;0.70;;;22.10;58.80;;;;;;4492461;31;20146;-67
2022/07/10 05:57:45;;;;;;;1.98;0.70;;;22.10;58.90;;;;;;4493480;31;20057;-67
2022/07/10 06:00:11;;;;;;;1.45;0.43;;;22.10;59.80;;;;;;4493238;31;20077;-67
2022/07/10 06:02:37;;;;;;;2.25;0.73;;;22.10;58.90;;;;;;4492450;31;20161;-67
2022/07/10 06:05:03;;;;;;;1.50;0.55;;;22.00;58.80;;;;;;4493328;31;20073;-67
2022/07/10 06:07:29;;;;;;;3.28;0.80;;;22.10;58.90;;;;;;4493024;31;20087;-67
2022/07/10 06:09:55;;;;;;;2.25;0.60;;;22.00;58.90;;;;;;4492945;31;20191;-67
2022/07/10 06:12:21;;;;;;;1.42;0.40;;;22.10;58.90;;;;;;4493178;31;20075;-67
2022/07/10 06:14:47;;;;;;;3.45;0.85;;;22.00;58.90;;;;;;4492223;31;20061;-67
2022/07/10 06:17:13;;;;;;;2.45;0.60;;;22.10;58.90;;;;;;4492900;31;20095;-67
2022/07/10 06:19:39;;;;;;;1.63;0.60;;;22.10;58.90;;;;;;4493111;31;20174;-67
2022/07/10 06:24:49;;;;;;;1.60;0.70;;;22.10;58.90;;;;;;4493297;31;20218;-67
2022/07/10 06:27:15;;;;;;;2.05;0.60;;;22.10;59.00;;;;;;4493007;31;20069;-67
2022/07/10 06:29:41;;;;;;;2.45;0.60;;;22.10;59.00;;;;;;4493245;31;20159;-67
2022/07/10 06:32:07;;;;;;;1.55;0.55;;;22.00;58.90;;;;;;4492989;31;20177;-67
2022/07/10 06:34:33;;;;;;;2.08;0.50;;;22.00;58.90;;;;;;4492923;31;20507;-67
2022/07/10 06:36:59;;;;;;;1.63;0.55;;;22.00;58.90;;;;;;4492879;31;20498;-67
2022/07/10 06:39:24;;;;;;;1.58;0.57;;;22.00;59.00;;;;;;4492832;31;20156;-67
2022/07/10 06:41:50;;;;;;;1.15;0.50;;;22.00;58.90;;;;;;4492724;31;20089;-67
2022/07/10 06:44:16;;;;;;;2.70;0.63;;;22.00;58.90;;;;;;4492688;31;20517;-67
2022/07/10 06:47:55;;;;;;;3.63;0.82;;;22.10;59.00;;;;;;4492398;31;20084;-67
2022/07/10 06:49:28;;;;;;;2.30;0.60;;;22.10;59.00;;;;;;4491931;31;20226;-67
2022/07/10 06:51:55;;;;;;;2.67;0.70;;;22.00;59.00;;;;;;4492690;31;20084;-67
2022/07/10 06:54:20;;;;;;;1.80;0.68;;;22.00;59.00;;;;;;4491339;31;20097;-67
2022/07/10 06:56:46;;;;;;;1.90;0.40;;;22.00;59.00;;;;;;4492678;31;20657;-67
2022/07/10 06:59:12;;;;;;;3.08;0.77;;;22.00;59.00;;;;;;4492547;31;20073;-67
2022/07/10 07:01:38;;;;;;;1.95;0.60;;;22.00;59.00;;;;;;4492528;31;20080;-67
2022/07/10 07:04:04;;;;;;;3.83;1.10;;;22.00;59.00;;;;;;4492537;31;20075;-67
2022/07/10 07:06:29;;;;;;;2.00;0.52;;;22.00;59.10;;;;;;4491458;31;20073;-66
2022/07/10 07:08:55;;;;;;;1.73;0.80;;;22.00;59.00;;;;;;4492413;31;20158;-66
2022/07/10 07:11:21;;;;;;;3.05;0.63;;;22.00;58.90;;;;;;4492310;31;20100;-67
2022/07/10 07:13:47;;;;;;;2.33;0.80;;;22.00;59.00;;;;;;4492627;31;20069;-67
2022/07/10 07:16:17;;;;;;;3.20;0.65;;;22.00;59.00;;;;;;4492070;31;20077;-66
2022/07/10 07:18:49;;;;;;;5.78;1.05;;;22.00;59.00;;;;;;4491286;31;20633;-68
2022/07/10 07:23:59;;;;;;;2.65;0.75;;;22.10;59.10;;;;;;4492271;31;20069;-67
2022/07/10 07:26:25;;;;;;;4.13;0.80;;;22.10;59.10;;;;;;4492082;31;20053;-67
2022/07/10 07:28:51;;;;;;;2.03;0.50;;;22.10;59.10;;;;;;4491969;31;20106;-66
2022/07/10 07:31:18;;;;;;;3.53;0.60;;;22.00;59.10;;;;;;4492231;31;20073;-67
2022/07/10 07:33:44;;;;;;;5.60;0.85;;;22.00;59.10;;;;;;4492189;31;20142;-68
2022/07/10 07:36:09;;;;;;;4.22;0.70;;;22.10;59.10;;;;;;4492079;31;20727;-67
2022/07/10 07:38:35;;;;;;;2.53;0.60;;;22.10;59.10;;;;;;4492098;31;20096;-67
2022/07/10 07:41:01;;;;;;;5.53;1.02;;;22.00;59.10;;;;;;4492013;31;20649;-67
2022/07/10 07:43:27;;;;;;;2.15;0.52;;;22.10;59.20;;;;;;4492103;31;20199;-67
2022/07/10 07:45:53;;;;;;;4.88;0.80;;;22.10;59.20;;;;;;4491975;31;20077;-67
2022/07/10 07:48:19;;;;;;;4.50;0.85;;;22.10;59.20;;;;;;4490933;31;20118;-67
2022/07/10 07:50:45;;;;;;;3.75;0.80;;;22.10;59.20;;;;;;4491747;31;20546;-67
2022/07/10 07:53:12;;;;;;;4.00;0.88;;;22.10;59.10;;;;;;4491686;31;20422;-67
2022/07/10 07:55:38;;;;;;;2.92;0.70;;;22.00;59.10;;;;;;4491917;31;20191;-67
2022/07/10 07:58:04;;;;;;;1.52;0.63;;;22.00;59.10;;;;;;4492186;32;20203;-66
2022/07/10 08:00:30;;;;;;;5.10;0.93;;;22.00;59.10;;;;;;4491834;32;20101;-64
2022/07/10 08:02:57;;;;;;;3.92;0.90;;;22.00;59.10;;;;;;4491555;32;20430;-64
2022/07/10 08:05:23;;;;;;;2.78;0.70;;;22.00;59.20;;;;;;4492068;32;20093;-64
2022/07/10 08:07:52;;;;;;;2.40;0.77;;;22.00;59.20;;;;;;4492049;32;20085;-64
2022/07/10 08:10:21;;;;;;;3.35;0.60;;;22.00;59.30;;;;;;4491640;32;20081;-64
2022/07/10 08:12:48;;;;;;;6.32;0.93;;;22.00;59.40;;;;;;4491361;32;20092;-64
2022/07/10 08:15:16;;;;;;;3.72;0.63;;;22.00;59.40;;;;;;4491923;32;20143;-64
2022/07/10 08:17:42;;;;;;;3.58;0.88;;;22.00;59.50;;;;;;4491777;32;20100;-64
2022/07/10 08:20:12;;;;;;;3.30;0.52;;;22.00;59.50;;;;;;4491852;32;20081;-64
2022/07/10 08:22:39;;;;;;;2.83;0.70;;;22.00;59.70;;;;;;4490667;32;20073;-64
2022/07/10 08:25:05;;;;;;;4.03;0.80;;;22.00;59.80;;;;;;4490510;32;20084;-64
2022/07/10 08:27:31;;;;;;;3.58;0.60;;;22.00;59.80;;;;;;4490538;32;20100;-64
2022/07/10 08:29:57;;;;;;;2.85;0.80;;;22.00;59.90;;;;;;4491978;32;20081;-64
2022/07/10 08:32:23;;;;;;;2.85;0.90;;;22.00;59.90;;;;;;4491595;32;20065;-64
2022/07/10 08:34:49;;;;;;;4.60;0.57;;;22.00;60.00;;;;;;4494100;31;20524;-64
2022/07/10 08:37:15;;;;;;;4.35;0.70;;;22.00;60.00;;;;;;4494177;31;20085;-67
2022/07/10 08:39:41;;;;;;;3.13;0.45;;;22.00;60.10;;;;;;4494702;31;20246;-66
2022/07/10 08:42:10;;;;;;;2.78;0.55;;;22.00;60.20;;;;;;4494866;31;20077;-67
2022/07/10 08:44:37;;;;;;;2.47;0.60;;;22.00;60.30;;;;;;4494574;31;20300;-67
2022/07/10 08:47:04;;;;;;;4.07;1.02;;;22.00;60.30;;;;;;4494456;31;20083;-66
2022/07/10 08:49:31;;;;;;;2.85;0.75;;;22.00;60.30;;;;;;4494495;31;20153;-66
2022/07/10 08:52:13;;;;;;;4.72;0.75;;;22.00;60.20;;;;;;4494242;31;20084;-66
2022/07/10 08:54:40;;;;;;;4.20;0.63;;;22.00;60.30;;;;;;4494675;31;20099;-66
2022/07/10 08:57:06;;;;;;;2.60;0.85;;;22.00;60.30;;;;;;4494413;31;20511;-66
2022/07/10 08:59:32;;;;;;;3.83;0.60;;;22.10;60.40;;;;;;4493301;31;20091;-68
2022/07/10 09:01:58;;;;;;;2.42;0.55;;;22.10;60.40;;;;;;4494061;31;20068;-67
2022/07/10 09:04:26;;;;;;;4.78;0.75;;;22.00;60.30;;;;;;4494452;31;20073;-66
2022/07/10 09:06:53;;;;;;;2.47;0.60;;;22.10;60.40;;;;;;4494507;31;20099;-66
2022/07/10 09:09:20;;;;;;;2.92;0.47;;;22.10;60.40;;;;;;4494453;31;20073;-67
2022/07/10 09:11:46;;;;;;;2.65;0.40;;;22.10;60.40;;;;;;4494116;31;20069;-67
2022/07/10 09:14:16;;;;;;;2.00;0.60;;;22.10;60.30;;;;;;4494408;31;20069;-66
2022/07/10 09:16:49;;;;;;;3.15;0.70;;;22.10;60.40;;;;;;4493837;31;20535;-66
2022/07/10 09:19:15;;;;;;;3.55;0.50;;;22.10;60.50;;;;;;4494092;31;20135;-66
2022/07/10 09:21:41;;;;;;;1.73;0.60;;;22.10;60.50;;;;;;4493765;31;20069;-67
2022/07/10 09:24:10;;;;;;;4.57;0.93;;;22.10;60.50;;;;;;4493645;31;20077;-66
2022/07/10 09:26:36;;;;;;;2.70;0.70;;;22.10;60.60;;;;;;4492645;31;20065;-66
2022/07/10 09:29:10;;;;;;;3.30;0.68;;;22.20;60.50;;;;;;4493652;31;20080;-68
2022/07/10 09:31:56;;;;;;;2.53;0.75;;;22.20;60.60;;;;;;4494022;31;20130;-66
2022/07/10 09:36:04;;;;;;;9.60;0.90;;;22.20;60.60;;;;;;4492867;31;20097;-67
2022/07/10 09:37:42;;;;;;;2.53;0.50;;;22.20;60.60;;;;;;4493460;31;20511;-67
2022/07/10 09:40:08;;;;;;;3.45;0.90;;;22.20;60.50;;;;;;4494039;31;20402;-66
2022/07/10 09:42:39;;;;;;;2.45;0.50;;;22.20;60.60;;;;;;4493851;31;20092;-67
2022/07/10 09:45:12;;;;;;;2.47;1.02;;;22.20;60.60;;;;;;4493134;31;20099;-66
2022/07/10 09:47:45;;;;;;;3.35;0.60;;;22.20;60.50;;;;;;4493655;31;20427;-66
2022/07/10 09:50:31;;;;;;;;;;;22.20;60.50;;;;;;4493660;31;20383;-67
2022/07/10 09:52:59;;;;;;;2.92;0.55;;;22.20;60.40;;;;;;4493114;31;20437;-66
2022/07/10 09:55:29;;;;;;;3.42;0.57;;;22.10;60.50;;;;;;4492430;31;20174;-66
2022/07/10 09:57:58;;;;;;;6.63;0.77;;;22.10;60.50;;;;;;4493452;31;20085;-66
2022/07/10 10:00:26;;;;;;;2.88;0.80;;;22.20;60.50;;;;;;4493430;31;20143;-67
2022/07/10 10:02:57;;;;;;;1.83;0.60;;;22.20;60.50;;;;;;4493666;31;20073;-67
2022/07/10 10:05:34;;;;;;;6.70;0.80;;;22.20;60.50;;;;;;4493545;31;20089;-66
2022/07/10 10:08:30;;;;;;;4.28;0.77;;;22.20;60.60;;;;;;4492330;31;20099;-65
2022/07/10 10:10:57;;;;;;;6.30;1.00;;;22.20;60.70;;;;;;4476042;31;20230;-66
2022/07/10 10:13:27;;;;;;;3.17;0.70;;;22.10;60.70;;;;;;4493425;31;20621;-66
2022/07/10 10:15:54;;;;;;;3.00;0.70;;;22.20;60.80;;;;;;4493026;31;20058;-66
2022/07/10 10:18:26;;;;;;;3.08;0.68;;;22.20;60.90;;;;;;4492868;31;20190;-66
2022/07/10 10:20:53;;;;;;;3.20;0.70;;;22.20;61.00;;;;;;4493456;31;20199;-66
2022/07/10 10:23:21;;;;;;;2.92;0.85;;;22.20;61.00;;;;;;4493089;31;20073;-66
2022/07/10 10:25:48;;;;;;;6.97;0.95;;;22.20;61.10;;;;;;4492702;31;20084;-67
2022/07/10 10:28:16;;;;;;;3.25;0.80;;;22.20;61.20;;;;;;4492992;31;20084;-66
2022/07/10 10:30:45;;;;;;;1.08;0.60;;;22.20;61.30;;;;;;4492948;31;20187;-66
2022/07/10 10:33:32;;;;;;;3.55;1.08;;;22.20;61.30;;;;;;4492672;31;20495;-66
2022/07/10 10:35:59;;;;;;;4.40;0.90;;;22.20;61.30;;;;;;4492789;31;20588;-66
2022/07/10 10:38:48;;;;;;;4.18;0.70;;;22.20;61.40;;;;;;4492576;31;20096;-66
2022/07/10 10:41:27;;;;;;;2.15;0.70;;;22.20;61.50;;;;;;4492687;31;20081;-66
2022/07/10 10:46:50;;;;;;;2.60;0.75;;;22.20;61.60;;;;;;4492929;31;20104;-66
2022/07/10 10:49:19;;;;;;;3.75;0.77;;;22.20;61.70;;;;;;4492974;31;20098;-66
2022/07/10 10:52:09;;;;;;;2.67;0.77;;;22.20;61.60;;;;;;4491119;31;20084;-66
2022/07/10 10:54:56;;;;;;;3.45;0.65;;;22.20;61.60;;;;;;4492476;31;20211;-66
2022/07/10 10:57:32;;;;;;;2.28;0.75;;;22.20;61.60;;;;;;4492275;31;20077;-66
2022/07/10 10:59:59;;;;;;;2.45;0.85;;;22.20;61.70;;;;;;4492849;31;20081;-66
2022/07/10 11:02:34;;;;;;;2.83;1.00;;;22.20;61.80;;;;;;4492744;31;20069;-66
2022/07/10 11:05:18;;;;;;;2.95;0.98;;;22.20;61.90;;;;;;4492644;31;20123;-66
2022/07/10 11:08:00;;;;;;;1.83;0.90;;;22.20;61.90;;;;;;4492542;31;20083;-66
2022/07/10 11:10:37;;;;;;;3.83;1.00;;;22.20;61.90;;;;;;4492531;31;20073;-66
2022/07/10 11:13:17;;;;;;;3.15;0.75;;;22.20;62.00;;;;;;4492910;31;20100;-66
2022/07/10 11:15:48;;;;;;;2.60;0.98;;;22.20;62.10;;;;;;4492247;31;20531;-66
2022/07/10 11:18:21;;;;;;;1.63;0.50;;;22.20;62.00;;;;;;4492603;31;20077;-67
2022/07/10 11:20:53;;;;;;;3.42;0.63;;;22.20;62.00;;;;;;4491983;31;20226;-67
2022/07/10 11:23:55;;;;;;;3.38;0.70;;;22.20;62.00;;;;;;4492126;31;20099;-66
2022/07/10 11:26:30;;;;;;;2.78;0.65;;;22.20;62.10;;;;;;4492032;31;20121;-65
2022/07/10 11:29:00;;;;;;;4.25;0.82;;;22.20;62.10;;;;;;4492305;31;20502;-66
2022/07/10 11:31:27;;;;;;;3.78;0.80;;;22.20;62.20;;;;;;4492430;31;20162;-66
2022/07/10 11:33:56;;;;;;;3.65;0.93;;;22.20;62.10;;;;;;4492397;31;20085;-66
2022/07/10 11:36:32;;;;;;;2.22;0.95;;;22.20;62.10;;;;;;4492109;31;20096;-67
2022/07/10 11:39:03;;;;;;;4.18;0.98;;;22.20;62.10;;;;;;4492439;31;20178;-66
2022/07/10 11:41:29;;;;;;;5.65;1.02;;;22.20;62.20;;;;;;4491724;31;20162;-66
2022/07/10 11:43:57;;;;;;;5.47;0.82;;;22.20;62.10;;;;;;4491778;31;20120;-66
2022/07/10 11:46:27;;;;;;;2.47;0.88;;;22.20;62.20;;;;;;4491983;31;20089;-66
2022/07/10 11:48:56;;;;;;;3.22;0.75;;;22.20;62.20;;;;;;4491939;31;20089;-66
2022/07/10 11:51:27;;;;;;;3.92;0.93;;;22.20;62.20;;;;;;4491650;31;20124;-65
2022/07/10 11:54:15;;;;;;;8.20;1.00;;;22.20;62.20;;;;;;4491838;31;20096;-66
2022/07/10 11:56:52;;;;;;;3.92;0.80;;;22.20;62.20;;;;;;4492034;31;20120;-66
2022/07/10 11:59:27;;;;;;;3.03;1.08;;;22.20;62.20;;;;;;4492205;32;20084;-66
2022/07/10 12:01:54;;;;;;;3.72;1.00;;;22.20;62.20;;;;;;4491890;31;20073;-66
2022/07/10 12:04:24;;;;;;;5.47;1.17;;;22.20;62.20;;;;;;4491482;32;20215;-66
2022/07/10 12:06:51;;;;;;;5.50;0.98;;;22.20;62.20;;;;;;4491701;32;20227;-66
2022/07/10 12:09:20;;;;;;;3.25;0.90;;;22.20;62.10;;;;;;4493616;31;20507;-67
2022/07/10 12:12:01;;;;;;;3.50;0.70;;;22.20;62.10;;;;;;4494926;31;20084;-66
2022/07/10 12:14:27;;;;;;;3.10;0.68;;;22.20;62.20;;;;;;4495071;31;20077;-66
2022/07/10 12:16:55;;;;;;;3.58;0.90;;;22.20;62.20;;;;;;4495018;31;20077;-66
2022/07/10 12:19:30;;;;;;;3.85;0.90;;;22.20;62.10;;;;;;4493534;31;20124;-66
2022/07/10 12:21:57;;;;;;;3.20;1.00;;;22.20;62.10;;;;;;4495151;31;20384;-66
2022/07/10 12:24:24;;;;;;;5.55;0.80;;;22.20;62.10;;;;;;4494766;31;20520;-67
2022/07/10 12:26:52;;;;;;;3.03;0.88;;;22.20;62.10;;;;;;4494844;31;20166;-66
2022/07/10 12:29:25;;;;;;;3.22;0.70;;;22.20;62.10;;;;;;4494486;31;20073;-66
2022/07/10 12:31:56;;;;;;;4.50;0.90;;;22.20;62.20;;;;;;4494511;31;20117;-66
2022/07/10 12:34:39;;;;;;;3.65;0.70;;;22.20;62.20;;;;;;4494760;31;20132;-66
2022/07/10 12:37:10;;;;;;;3.60;0.93;;;22.20;62.10;;;;;;4493647;31;20461;-66
2022/07/10 12:39:41;;;;;;;2.53;0.85;;;22.30;62.20;;;;;;4494598;31;20088;-66
2022/07/10 12:42:07;;;;;;;2.83;0.80;;;22.30;62.20;;;;;;4494841;31;20084;-66
2022/07/10 12:44:34;;;;;;;2.58;0.68;;;22.30;62.20;;;;;;4494525;31;20088;-66
2022/07/10 12:47:08;;;;;;;2.83;0.88;;;22.20;62.00;;;;;;4494223;31;20235;-66
2022/07/10 12:50:05;;;;;;;5.88;1.30;;;22.30;62.10;;;;;;4494554;31;20092;-67
2022/07/10 12:52:35;;;;;;;1.67;0.75;;;22.30;62.00;;;;;;4494384;31;20099;-66
2022/07/10 12:55:21;;;;;;;3.03;0.82;;;22.30;62.10;;;;;;4494360;31;20132;-68
2022/07/10 12:57:55;;;;;;;3.25;1.05;;;22.20;62.00;;;;;;4494306;31;20092;-66
2022/07/10 13:00:23;;;;;;;5.15;0.85;;;22.20;62.10;;;;;;4494288;31;20136;-66
2022/07/10 13:03:00;;;;;;;2.85;0.77;;;22.20;62.00;;;;;;4494297;31;20502;-67
2022/07/10 13:05:35;;;;;;;4.13;0.90;;;22.30;62.20;;;;;;4494287;31;20073;-66